BCS3314 EGLL-EBBR
Flight info
| Callsign | BCS3314 |
|---|---|
| Flight time | 0h 40m |
| Altitude | 23000 |
| Route | DET Q70 KOK |
| Aircraft | B77L/H-SDE1E2E3FGHIJ2J3J4J5M1RWXYZ/LB1D1 |
Departure
| Time | 2026-04-30 17:46 |
|---|---|
| Airport | London Heathrow Airport (EGLL) |
Arrival
| Time | 2026-04-30 18:26 |
|---|---|
| Airport | Brussels Airport (EBBR) |
| Time | Latitude | Longitude | Altitude | Speed | Heading |
|---|---|---|---|---|---|
| 2026-04-30 17:39 | 51.46307 | -0.46513 | 99 ft | 0 kts | 268° |
| 2026-04-30 17:41 | 51.46318 | -0.46703 | 99 ft | 18 kts | 277° |
| 2026-04-30 17:42 | 51.46320 | -0.47140 | 99 ft | 22 kts | 270° |
| 2026-04-30 17:42 | 51.46260 | -0.47848 | 99 ft | 21 kts | 248° |
| 2026-04-30 17:43 | 51.46250 | -0.48333 | 99 ft | 22 kts | 271° |
| 2026-04-30 17:44 | 51.46465 | -0.48717 | 99 ft | 10 kts | 49° |
| 2026-04-30 17:44 | 51.46487 | -0.46734 | 123 ft | 161 kts | 89° |
| 2026-04-30 17:46 | 51.44912 | -0.37634 | 4193 ft | 216 kts | 125° |
| 2026-04-30 17:47 | 51.42654 | -0.27503 | 6000 ft | 257 kts | 105° |
| 2026-04-30 17:48 | 51.41112 | -0.16156 | 8708 ft | 262 kts | 105° |
| 2026-04-30 17:48 | 51.39917 | -0.07510 | 11553 ft | 274 kts | 105° |
| 2026-04-30 17:49 | 51.38217 | 0.04706 | 15338 ft | 295 kts | 105° |
| 2026-04-30 17:50 | 51.36375 | 0.17869 | 19519 ft | 315 kts | 105° |
| 2026-04-30 17:51 | 51.34919 | 0.28170 | 22546 ft | 324 kts | 105° |
| 2026-04-30 17:52 | 51.33408 | 0.38800 | 23193 ft | 328 kts | 105° |
| 2026-04-30 17:53 | 51.30864 | 0.56516 | 23186 ft | 329 kts | 105° |
| 2026-04-30 17:54 | 51.29997 | 0.71034 | 23189 ft | 330 kts | 96° |
| 2026-04-30 17:55 | 51.29466 | 0.85603 | 23195 ft | 331 kts | 96° |
| 2026-04-30 17:56 | 51.28910 | 1.00288 | 23190 ft | 332 kts | 96° |
| 2026-04-30 17:57 | 51.28484 | 1.11256 | 23189 ft | 331 kts | 96° |
| 2026-04-30 17:58 | 51.28046 | 1.22211 | 23191 ft | 331 kts | 96° |
| 2026-04-30 17:59 | 51.27446 | 1.36860 | 23187 ft | 331 kts | 96° |
| 2026-04-30 18:00 | 51.26825 | 1.51571 | 23201 ft | 333 kts | 96° |
| 2026-04-30 18:00 | 51.26349 | 1.62566 | 23195 ft | 331 kts | 96° |
| 2026-04-30 18:01 | 51.26026 | 1.69857 | 23202 ft | 332 kts | 96° |
| 2026-04-30 18:02 | 51.25530 | 1.80905 | 23204 ft | 332 kts | 96° |
| 2026-04-30 18:02 | 51.25026 | 1.91889 | 23209 ft | 333 kts | 96° |
| 2026-04-30 18:03 | 51.24372 | 2.02881 | 23211 ft | 332 kts | 106° |
| 2026-04-30 18:04 | 51.22322 | 2.13392 | 23213 ft | 331 kts | 109° |
| 2026-04-30 18:05 | 51.19534 | 2.27307 | 23207 ft | 330 kts | 108° |
| 2026-04-30 18:06 | 51.16692 | 2.41388 | 22935 ft | 342 kts | 108° |
| 2026-04-30 18:07 | 51.13734 | 2.55934 | 21919 ft | 343 kts | 108° |
| 2026-04-30 18:08 | 51.11533 | 2.66696 | 21296 ft | 341 kts | 109° |
| 2026-04-30 18:09 | 51.08685 | 2.80541 | 19769 ft | 323 kts | 109° |
| 2026-04-30 18:10 | 51.05854 | 2.94187 | 17989 ft | 330 kts | 109° |
| 2026-04-30 18:11 | 51.03065 | 3.07559 | 16887 ft | 303 kts | 109° |
| 2026-04-30 18:11 | 51.01015 | 3.17337 | 14963 ft | 315 kts | 109° |
| 2026-04-30 18:12 | 50.98960 | 3.27059 | 13683 ft | 308 kts | 109° |
| 2026-04-30 18:13 | 50.97599 | 3.33482 | 12805 ft | 305 kts | 109° |
| 2026-04-30 18:13 | 50.95821 | 3.41858 | 11630 ft | 297 kts | 109° |
| 2026-04-30 18:14 | 50.94367 | 3.48678 | 10500 ft | 272 kts | 109° |
| 2026-04-30 18:15 | 50.92573 | 3.57064 | 9276 ft | 266 kts | 109° |
| 2026-04-30 18:15 | 50.90799 | 3.65317 | 8224 ft | 261 kts | 110° |
| 2026-04-30 18:16 | 50.89632 | 3.70712 | 7539 ft | 257 kts | 110° |
| 2026-04-30 18:16 | 50.88490 | 3.76002 | 6901 ft | 253 kts | 110° |
| 2026-04-30 18:17 | 50.87926 | 3.78604 | 6553 ft | 252 kts | 110° |
| 2026-04-30 18:17 | 50.87357 | 3.81231 | 6227 ft | 250 kts | 110° |
| 2026-04-30 18:17 | 50.86240 | 3.86384 | 5574 ft | 247 kts | 110° |
| 2026-04-30 18:18 | 50.85681 | 3.88942 | 5252 ft | 245 kts | 110° |
| 2026-04-30 18:18 | 50.85126 | 3.91489 | 4942 ft | 243 kts | 110° |
| 2026-04-30 18:18 | 50.84576 | 3.93999 | 4626 ft | 242 kts | 110° |
| 2026-04-30 18:18 | 50.84037 | 3.96447 | 4571 ft | 229 kts | 110° |
| 2026-04-30 18:19 | 50.83530 | 3.98758 | 4537 ft | 217 kts | 110° |
| 2026-04-30 18:19 | 50.83056 | 4.00929 | 4504 ft | 205 kts | 110° |
| 2026-04-30 18:19 | 50.82602 | 4.03011 | 4445 ft | 196 kts | 110° |
| 2026-04-30 18:19 | 50.82155 | 4.05053 | 4328 ft | 192 kts | 110° |
| 2026-04-30 18:20 | 50.81717 | 4.07061 | 4006 ft | 198 kts | 110° |
| 2026-04-30 18:20 | 50.81252 | 4.09175 | 3609 ft | 204 kts | 110° |
| 2026-04-30 18:20 | 50.80795 | 4.11256 | 3463 ft | 198 kts | 107° |
| 2026-04-30 18:20 | 50.80718 | 4.13375 | 3400 ft | 192 kts | 82° |
| 2026-04-30 18:21 | 50.81162 | 4.15312 | 3311 ft | 183 kts | 73° |
| 2026-04-30 18:21 | 50.81663 | 4.17118 | 3261 ft | 174 kts | 72° |
| 2026-04-30 18:21 | 50.82151 | 4.18830 | 3203 ft | 171 kts | 72° |
| 2026-04-30 18:21 | 50.82647 | 4.20549 | 3149 ft | 170 kts | 72° |
| 2026-04-30 18:22 | 50.83134 | 4.22246 | 3098 ft | 169 kts | 72° |
| 2026-04-30 18:22 | 50.84110 | 4.25631 | 2934 ft | 171 kts | 72° |
| 2026-04-30 18:22 | 50.84611 | 4.27348 | 2666 ft | 173 kts | 71° |
| 2026-04-30 18:23 | 50.85105 | 4.29045 | 2416 ft | 163 kts | 71° |
| 2026-04-30 18:23 | 50.85561 | 4.30612 | 2217 ft | 152 kts | 72° |
| 2026-04-30 18:23 | 50.85987 | 4.32072 | 2023 ft | 141 kts | 72° |
| 2026-04-30 18:23 | 50.86380 | 4.33431 | 1836 ft | 132 kts | 72° |
| 2026-04-30 18:24 | 50.87128 | 4.36020 | 1499 ft | 128 kts | 72° |
| 2026-04-30 18:24 | 50.87503 | 4.37312 | 1316 ft | 129 kts | 71° |
| 2026-04-30 18:24 | 50.87877 | 4.38604 | 1151 ft | 130 kts | 71° |
| 2026-04-30 18:25 | 50.88249 | 4.39914 | 974 ft | 130 kts | 70° |
| 2026-04-30 18:25 | 50.89009 | 4.42514 | 592 ft | 131 kts | 68° |
| 2026-04-30 18:25 | 50.89387 | 4.43828 | 418 ft | 131 kts | 68° |
| 2026-04-30 18:26 | 50.90148 | 4.46474 | 124 ft | 124 kts | 64° |
| 2026-04-30 18:26 | 50.90447 | 4.47479 | 115 ft | 80 kts | 64° |
| 2026-04-30 18:26 | 50.90609 | 4.48051 | 115 ft | 32 kts | 65° |
| 2026-04-30 18:27 | 50.90644 | 4.48333 | 115 ft | 11 kts | 115° |
| 2026-04-30 18:27 | 50.90611 | 4.48437 | 117 ft | 10 kts | 117° |
| 2026-04-30 18:28 | 50.90529 | 4.48392 | 119 ft | 12 kts | 244° |
| 2026-04-30 18:28 | 50.90479 | 4.48224 | 119 ft | 20 kts | 244° |
| 2026-04-30 18:28 | 50.90348 | 4.47776 | 119 ft | 22 kts | 245° |
| 2026-04-30 18:29 | 50.90282 | 4.47547 | 119 ft | 22 kts | 245° |
| 2026-04-30 18:29 | 50.90225 | 4.46945 | 119 ft | 20 kts | 295° |
| 2026-04-30 18:30 | 50.90331 | 4.46600 | 120 ft | 20 kts | 296° |
| 2026-04-30 18:30 | 50.90320 | 4.46230 | 123 ft | 6 kts | 282° |
| 2026-04-30 18:31 | 50.90356 | 4.46182 | 123 ft | 8 kts | 333° |
| 2026-04-30 18:31 | 50.90395 | 4.46153 | 122 ft | 0 kts | 334° |